ベレン の空港の天気 - METARとTAF

ベレン国際空港 ( SBBE / BEL ) - ブラジル パラー州ベレン
飛行場実況気象(Metar)
観測時間01/23 01:00 AMT (01/23 05:00 UTC)
風向・風速東 2m/s
視程10km以上
天気現象
なし
気温25℃
湿度89%
気圧1009hPa
METARSBBE 230500Z 08004KT CAVOK 25/23 Q1009
過去の天気等 Google飛行場航空写真 Wunderground天気予報

過去48時間のMETAR

飛行場予報(TAF)
発表時間: 1/23 00:00 AMT (1/23 04:00 UTC)
予報対象時間: 23日2時 AMT ~ 24日2時 AMT
風向・風速東 2m/s
視程10km以上
なし
23日3時 AMT ~ 23日5時 AMT に徐々に
風向・風速東北東 2m/s
視程10km以上
少しの雲 雲底高度 550m
23日7時 AMT ~ 23日9時 AMT に徐々に
風向・風速東北東 5m/s
全天の8割程度の雲 雲底高度 760m
23日11時 AMT ~ 23日13時 AMT に徐々に
23日15時 AMT ~ 23日17時 AMT に徐々に
風向・風速北東 3m/s
視程10km以上
全天の4割程度の雲 雲底高度 910m
23日19時 AMT ~ 23日21時 AMT に徐々に
視程10km以上
なし
23日23時 AMT ~ 24日1時 AMT に徐々に
風向・風速東 1m/s
TAF SBBE 230400Z 2306/2406 09003KT CAVOK TN24/2306Z TX30/2315Z
BECMG 2307/2309 06003KT 9999 FEW018
BECMG 2311/2313 06010KT BKN025
BECMG 2315/2317 0 7005KT 9999 TSRA BKN025 FEW030CB
BECMG 2319/2321 04005KT 9999 SCT030
BECMG 2323/2401 CAVOK
BECMG 2403/2405 09002KT RMK PDY